Terminal Aerodrome Forecast
Issued by NWS Caribou, ME

Home | Current Version | Previous Version | Text Only | Print | Product List | Glossary On
Versions: 1 2 3 4 5 6 7 8 9 10 11 12 13 14 15 16 17
000
FTUS41 KCAR 230752 AAB
TAFCAR
TAF AMD
KCAR 230752Z 2308/2406 32009KT P6SM VCSH BKN100
      TEMPO 2308/2310 6SM -RA OVC010
     FM231300 30015G22KT P6SM BKN045
     FM231600 30019G30KT P6SM BKN060
     FM232200 29013G21KT P6SM FEW070=

USA.gov is the U.S. government's official web portal to all federal, state and local government web resources and services.